sensor_id;sensor_type;location;lat;lon;timestamp;temperature;humidity
45489;DHT22;31236;55.026;61.042;2022-09-21T00:00:29;10.80;60.40
45489;DHT22;31236;55.026;61.042;2022-09-21T00:03:00;10.80;60.20
45489;DHT22;31236;55.026;61.042;2022-09-21T00:05:31;10.80;61.40
45489;DHT22;31236;55.026;61.042;2022-09-21T00:08:03;10.70;63.20
45489;DHT22;31236;55.026;61.042;2022-09-21T00:10:34;10.60;64.50
45489;DHT22;31236;55.026;61.042;2022-09-21T00:13:05;10.50;65.30
45489;DHT22;31236;55.026;61.042;2022-09-21T00:15:38;10.40;66.00
45489;DHT22;31236;55.026;61.042;2022-09-21T00:18:09;10.40;66.70
45489;DHT22;31236;55.026;61.042;2022-09-21T00:20:41;10.40;66.70
45489;DHT22;31236;55.026;61.042;2022-09-21T00:23:11;10.40;66.60
45489;DHT22;31236;55.026;61.042;2022-09-21T00:25:41;10.40;65.50
45489;DHT22;31236;55.026;61.042;2022-09-21T00:28:12;10.40;64.40
45489;DHT22;31236;55.026;61.042;2022-09-21T00:30:42;10.40;64.00
45489;DHT22;31236;55.026;61.042;2022-09-21T00:33:14;10.30;62.90
45489;DHT22;31236;55.026;61.042;2022-09-21T00:35:44;10.20;60.90
45489;DHT22;31236;55.026;61.042;2022-09-21T00:38:15;10.20;61.60
45489;DHT22;31236;55.026;61.042;2022-09-21T00:40:45;10.20;61.10
45489;DHT22;31236;55.026;61.042;2022-09-21T00:43:16;10.20;61.10
45489;DHT22;31236;55.026;61.042;2022-09-21T00:45:47;10.10;62.10
45489;DHT22;31236;55.026;61.042;2022-09-21T00:48:20;10.10;63.50
45489;DHT22;31236;55.026;61.042;2022-09-21T00:50:51;10.10;64.60
45489;DHT22;31236;55.026;61.042;2022-09-21T00:53:23;10.00;65.30
45489;DHT22;31236;55.026;61.042;2022-09-21T00:55:55;10.10;65.80
45489;DHT22;31236;55.026;61.042;2022-09-21T00:59:02;10.00;66.90
45489;DHT22;31236;55.026;61.042;2022-09-21T01:01:00;10.00;66.00
45489;DHT22;31236;55.026;61.042;2022-09-21T01:03:31;10.00;66.00
45489;DHT22;31236;55.026;61.042;2022-09-21T01:06:02;9.90;67.20
45489;DHT22;31236;55.026;61.042;2022-09-21T01:08:33;9.80;68.60
45489;DHT22;31236;55.026;61.042;2022-09-21T01:41:08;9.40;72.50
45489;DHT22;31236;55.026;61.042;2022-09-21T01:43:42;9.40;72.90
45489;DHT22;31236;55.026;61.042;2022-09-21T01:46:16;9.40;73.20
45489;DHT22;31236;55.026;61.042;2022-09-21T01:48:49;9.50;73.10
45489;DHT22;31236;55.026;61.042;2022-09-21T01:51:21;9.50;73.20
45489;DHT22;31236;55.026;61.042;2022-09-21T01:53:55;9.40;73.40
45489;DHT22;31236;55.026;61.042;2022-09-21T02:01:53;9.40;74.50
45489;DHT22;31236;55.026;61.042;2022-09-21T02:04:24;9.30;74.50
45489;DHT22;31236;55.026;61.042;2022-09-21T02:06:55;9.40;74.30
45489;DHT22;31236;55.026;61.042;2022-09-21T02:09:25;9.40;74.00
45489;DHT22;31236;55.026;61.042;2022-09-21T02:11:56;9.40;74.30
45489;DHT22;31236;55.026;61.042;2022-09-21T02:14:28;9.50;74.50
45489;DHT22;31236;55.026;61.042;2022-09-21T02:23:22;9.80;73.40
45489;DHT22;31236;55.026;61.042;2022-09-21T02:40:28;10.00;72.60
45489;DHT22;31236;55.026;61.042;2022-09-21T02:43:33;10.10;73.00
45489;DHT22;31236;55.026;61.042;2022-09-21T02:45:50;10.10;73.10
45489;DHT22;31236;55.026;61.042;2022-09-21T02:51:15;10.30;73.90
45489;DHT22;31236;55.026;61.042;2022-09-21T02:53:46;10.40;73.20
45489;DHT22;31236;55.026;61.042;2022-09-21T02:56:19;10.50;73.30
45489;DHT22;31236;55.026;61.042;2022-09-21T02:59:08;10.60;72.30
45489;DHT22;31236;55.026;61.042;2022-09-21T03:01:40;10.60;72.20
45489;DHT22;31236;55.026;61.042;2022-09-21T03:04:11;10.70;71.70
45489;DHT22;31236;55.026;61.042;2022-09-21T03:06:41;10.80;71.70
45489;DHT22;31236;55.026;61.042;2022-09-21T03:09:12;10.80;72.40
45489;DHT22;31236;55.026;61.042;2022-09-21T03:11:42;10.90;74.00
45489;DHT22;31236;55.026;61.042;2022-09-21T03:14:13;10.90;74.40
45489;DHT22;31236;55.026;61.042;2022-09-21T03:16:44;11.00;73.50
45489;DHT22;31236;55.026;61.042;2022-09-21T03:19:15;11.10;72.50
45489;DHT22;31236;55.026;61.042;2022-09-21T03:21:45;11.20;73.00
45489;DHT22;31236;55.026;61.042;2022-09-21T03:24:16;11.40;72.20
45489;DHT22;31236;55.026;61.042;2022-09-21T03:26:48;11.60;71.50
45489;DHT22;31236;55.026;61.042;2022-09-21T03:29:18;11.80;71.40
45489;DHT22;31236;55.026;61.042;2022-09-21T03:31:49;12.00;72.00
45489;DHT22;31236;55.026;61.042;2022-09-21T03:34:20;12.10;73.20
45489;DHT22;31236;55.026;61.042;2022-09-21T03:36:50;12.20;73.90
45489;DHT22;31236;55.026;61.042;2022-09-21T03:39:21;12.30;74.60
45489;DHT22;31236;55.026;61.042;2022-09-21T03:41:52;12.40;74.40
45489;DHT22;31236;55.026;61.042;2022-09-21T03:44:23;12.50;75.10
45489;DHT22;31236;55.026;61.042;2022-09-21T03:46:54;12.60;75.20
45489;DHT22;31236;55.026;61.042;2022-09-21T03:49:25;12.70;74.90
45489;DHT22;31236;55.026;61.042;2022-09-21T03:51:55;12.70;75.00
45489;DHT22;31236;55.026;61.042;2022-09-21T03:54:26;12.70;75.40
45489;DHT22;31236;55.026;61.042;2022-09-21T03:56:56;12.80;75.70
45489;DHT22;31236;55.026;61.042;2022-09-21T03:59:26;12.90;75.50
45489;DHT22;31236;55.026;61.042;2022-09-21T04:01:57;13.00;74.90
45489;DHT22;31236;55.026;61.042;2022-09-21T04:04:27;13.10;75.50
45489;DHT22;31236;55.026;61.042;2022-09-21T04:06:58;13.10;75.30
45489;DHT22;31236;55.026;61.042;2022-09-21T04:09:29;13.20;74.70
45489;DHT22;31236;55.026;61.042;2022-09-21T04:12:00;13.40;74.70
45489;DHT22;31236;55.026;61.042;2022-09-21T04:14:30;13.60;75.40
45489;DHT22;31236;55.026;61.042;2022-09-21T04:17:01;13.70;75.70
45489;DHT22;31236;55.026;61.042;2022-09-21T04:19:32;13.70;76.00
45489;DHT22;31236;55.026;61.042;2022-09-21T04:22:02;13.70;75.20
45489;DHT22;31236;55.026;61.042;2022-09-21T04:24:33;13.80;74.10
45489;DHT22;31236;55.026;61.042;2022-09-21T04:27:03;13.90;72.80
45489;DHT22;31236;55.026;61.042;2022-09-21T04:29:33;13.90;73.80
45489;DHT22;31236;55.026;61.042;2022-09-21T04:32:04;14.00;72.30
45489;DHT22;31236;55.026;61.042;2022-09-21T04:34:35;14.10;71.10
45489;DHT22;31236;55.026;61.042;2022-09-21T04:37:06;14.10;71.40
45489;DHT22;31236;55.026;61.042;2022-09-21T04:39:37;14.30;71.40
45489;DHT22;31236;55.026;61.042;2022-09-21T04:42:08;14.40;72.70
45489;DHT22;31236;55.026;61.042;2022-09-21T04:44:39;14.50;72.90
45489;DHT22;31236;55.026;61.042;2022-09-21T04:47:09;14.60;72.60
45489;DHT22;31236;55.026;61.042;2022-09-21T04:49:40;14.70;72.90
45489;DHT22;31236;55.026;61.042;2022-09-21T04:52:10;14.70;72.40
45489;DHT22;31236;55.026;61.042;2022-09-21T04:54:41;14.70;72.30
45489;DHT22;31236;55.026;61.042;2022-09-21T04:57:12;14.80;71.80
45489;DHT22;31236;55.026;61.042;2022-09-21T04:59:43;15.00;70.80
45489;DHT22;31236;55.026;61.042;2022-09-21T05:02:13;15.30;69.90
45489;DHT22;31236;55.026;61.042;2022-09-21T05:04:43;15.40;69.10
45489;DHT22;31236;55.026;61.042;2022-09-21T05:07:14;15.60;69.90
45489;DHT22;31236;55.026;61.042;2022-09-21T05:09:44;15.90;69.80
45489;DHT22;31236;55.026;61.042;2022-09-21T05:12:35;16.10;70.60
45489;DHT22;31236;55.026;61.042;2022-09-21T05:15:06;16.30;69.20
45489;DHT22;31236;55.026;61.042;2022-09-21T05:17:38;16.40;68.50
45489;DHT22;31236;55.026;61.042;2022-09-21T05:20:08;16.50;66.40
45489;DHT22;31236;55.026;61.042;2022-09-21T05:22:38;16.60;65.70
45489;DHT22;31236;55.026;61.042;2022-09-21T05:25:09;16.70;66.00
45489;DHT22;31236;55.026;61.042;2022-09-21T05:27:39;17.10;64.90
45489;DHT22;31236;55.026;61.042;2022-09-21T05:30:11;17.20;65.10
45489;DHT22;31236;55.026;61.042;2022-09-21T05:32:44;17.40;66.70
45489;DHT22;31236;55.026;61.042;2022-09-21T05:38:24;17.60;66.80
45489;DHT22;31236;55.026;61.042;2022-09-21T05:40:55;17.80;66.50
45489;DHT22;31236;55.026;61.042;2022-09-21T05:43:26;17.80;67.00
45489;DHT22;31236;55.026;61.042;2022-09-21T06:04:13;18.50;66.00
45489;DHT22;31236;55.026;61.042;2022-09-21T06:06:44;18.60;66.30
45489;DHT22;31236;55.026;61.042;2022-09-21T06:09:14;18.70;67.10
45489;DHT22;31236;55.026;61.042;2022-09-21T06:11:47;18.80;66.40
45489;DHT22;31236;55.026;61.042;2022-09-21T06:14:17;19.00;66.30
45489;DHT22;31236;55.026;61.042;2022-09-21T06:16:49;19.00;65.80
45489;DHT22;31236;55.026;61.042;2022-09-21T06:19:19;19.20;66.90
45489;DHT22;31236;55.026;61.042;2022-09-21T06:21:50;19.30;66.90
45489;DHT22;31236;55.026;61.042;2022-09-21T06:24:20;19.40;67.00
45489;DHT22;31236;55.026;61.042;2022-09-21T06:26:50;19.50;67.10
45489;DHT22;31236;55.026;61.042;2022-09-21T06:29:20;19.60;66.20
45489;DHT22;31236;55.026;61.042;2022-09-21T06:31:51;19.70;65.80
45489;DHT22;31236;55.026;61.042;2022-09-21T06:34:21;19.70;65.70
45489;DHT22;31236;55.026;61.042;2022-09-21T06:36:52;19.70;65.90
45489;DHT22;31236;55.026;61.042;2022-09-21T06:39:22;19.80;65.90
45489;DHT22;31236;55.026;61.042;2022-09-21T06:41:53;19.90;65.70
45489;DHT22;31236;55.026;61.042;2022-09-21T06:44:24;19.90;66.00
45489;DHT22;31236;55.026;61.042;2022-09-21T06:46:56;19.90;67.00
45489;DHT22;31236;55.026;61.042;2022-09-21T06:49:26;19.90;67.40
45489;DHT22;31236;55.026;61.042;2022-09-21T06:51:56;20.00;65.80
45489;DHT22;31236;55.026;61.042;2022-09-21T06:54:26;20.10;67.60
45489;DHT22;31236;55.026;61.042;2022-09-21T06:56:57;20.10;66.60
45489;DHT22;31236;55.026;61.042;2022-09-21T06:59:27;20.10;66.50
45489;DHT22;31236;55.026;61.042;2022-09-21T07:01:57;20.20;64.80
45489;DHT22;31236;55.026;61.042;2022-09-21T07:04:28;20.30;65.20
45489;DHT22;31236;55.026;61.042;2022-09-21T07:06:59;20.30;65.70
45489;DHT22;31236;55.026;61.042;2022-09-21T07:09:29;20.40;65.10
45489;DHT22;31236;55.026;61.042;2022-09-21T07:12:00;20.50;64.20
45489;DHT22;31236;55.026;61.042;2022-09-21T07:14:30;20.50;63.90
45489;DHT22;31236;55.026;61.042;2022-09-21T07:17:01;20.60;62.40
45489;DHT22;31236;55.026;61.042;2022-09-21T07:19:33;20.70;61.60
45489;DHT22;31236;55.026;61.042;2022-09-21T07:22:03;20.80;58.90
45489;DHT22;31236;55.026;61.042;2022-09-21T07:24:33;20.90;59.70
45489;DHT22;31236;55.026;61.042;2022-09-21T07:27:04;21.00;60.20
45489;DHT22;31236;55.026;61.042;2022-09-21T07:29:35;21.00;60.90
45489;DHT22;31236;55.026;61.042;2022-09-21T07:32:05;21.00;60.40
45489;DHT22;31236;55.026;61.042;2022-09-21T07:34:36;21.10;59.40
45489;DHT22;31236;55.026;61.042;2022-09-21T07:37:07;21.20;57.30
45489;DHT22;31236;55.026;61.042;2022-09-21T07:39:37;21.40;60.90
45489;DHT22;31236;55.026;61.042;2022-09-21T07:42:07;21.30;59.60
45489;DHT22;31236;55.026;61.042;2022-09-21T07:44:38;21.50;57.80
45489;DHT22;31236;55.026;61.042;2022-09-21T07:47:08;21.50;56.60
45489;DHT22;31236;55.026;61.042;2022-09-21T07:49:40;21.60;55.90
45489;DHT22;31236;55.026;61.042;2022-09-21T07:52:11;21.60;55.90
45489;DHT22;31236;55.026;61.042;2022-09-21T07:54:42;21.70;54.40
45489;DHT22;31236;55.026;61.042;2022-09-21T07:57:12;21.80;54.20
45489;DHT22;31236;55.026;61.042;2022-09-21T08:00:03;21.80;56.30
45489;DHT22;31236;55.026;61.042;2022-09-21T08:02:33;21.70;54.30
45489;DHT22;31236;55.026;61.042;2022-09-21T08:05:04;21.80;54.00
45489;DHT22;31236;55.026;61.042;2022-09-21T08:07:34;21.90;52.50
45489;DHT22;31236;55.026;61.042;2022-09-21T08:10:05;22.00;51.00
45489;DHT22;31236;55.026;61.042;2022-09-21T08:12:36;22.00;50.50
45489;DHT22;31236;55.026;61.042;2022-09-21T08:15:07;22.00;49.70
45489;DHT22;31236;55.026;61.042;2022-09-21T08:17:38;22.10;47.20
45489;DHT22;31236;55.026;61.042;2022-09-21T08:20:08;22.20;47.10
45489;DHT22;31236;55.026;61.042;2022-09-21T08:22:39;22.30;45.20
45489;DHT22;31236;55.026;61.042;2022-09-21T08:25:11;22.40;45.90
45489;DHT22;31236;55.026;61.042;2022-09-21T08:27:41;22.50;45.50
45489;DHT22;31236;55.026;61.042;2022-09-21T08:30:12;22.60;46.80
45489;DHT22;31236;55.026;61.042;2022-09-21T08:32:43;22.70;47.70
45489;DHT22;31236;55.026;61.042;2022-09-21T08:35:14;22.70;49.90
45489;DHT22;31236;55.026;61.042;2022-09-21T08:37:45;22.70;50.10
45489;DHT22;31236;55.026;61.042;2022-09-21T08:40:17;22.70;48.80
45489;DHT22;31236;55.026;61.042;2022-09-21T08:45:58;22.80;47.90
45489;DHT22;31236;55.026;61.042;2022-09-21T08:48:32;22.80;48.90
45489;DHT22;31236;55.026;61.042;2022-09-21T08:51:06;22.70;48.10
45489;DHT22;31236;55.026;61.042;2022-09-21T08:53:58;22.80;48.50
45489;DHT22;31236;55.026;61.042;2022-09-21T08:56:28;22.90;43.00
45489;DHT22;31236;55.026;61.042;2022-09-21T08:58:59;23.20;43.70
45489;DHT22;31236;55.026;61.042;2022-09-21T09:07:47;23.40;43.80
45489;DHT22;31236;55.026;61.042;2022-09-21T09:13:20;23.50;42.90
45489;DHT22;31236;55.026;61.042;2022-09-21T09:21:49;23.70;39.20
45489;DHT22;31236;55.026;61.042;2022-09-21T09:30:42;23.80;39.40
45489;DHT22;31236;55.026;61.042;2022-09-21T09:36:05;24.00;34.00
45489;DHT22;31236;55.026;61.042;2022-09-21T09:45:13;24.10;36.60
45489;DHT22;31236;55.026;61.042;2022-09-21T09:50:23;24.10;35.10
45489;DHT22;31236;55.026;61.042;2022-09-21T09:52:54;24.10;34.00
45489;DHT22;31236;55.026;61.042;2022-09-21T09:55:27;24.10;34.40
45489;DHT22;31236;55.026;61.042;2022-09-21T09:57:59;24.10;37.00
45489;DHT22;31236;55.026;61.042;2022-09-21T10:00:30;24.10;34.90
45489;DHT22;31236;55.026;61.042;2022-09-21T10:03:00;24.00;36.00
45489;DHT22;31236;55.026;61.042;2022-09-21T10:05:33;23.90;35.90
45489;DHT22;31236;55.026;61.042;2022-09-21T10:08:43;23.90;39.50
45489;DHT22;31236;55.026;61.042;2022-09-21T10:11:15;23.90;34.30
45489;DHT22;31236;55.026;61.042;2022-09-21T10:13:47;24.10;33.50
45489;DHT22;31236;55.026;61.042;2022-09-21T10:16:21;24.10;34.30
45489;DHT22;31236;55.026;61.042;2022-09-21T10:19:42;24.20;32.60
45489;DHT22;31236;55.026;61.042;2022-09-21T10:21:43;24.20;35.30
45489;DHT22;31236;55.026;61.042;2022-09-21T10:24:34;24.10;35.30
45489;DHT22;31236;55.026;61.042;2022-09-21T10:29:58;24.20;36.20
45489;DHT22;31236;55.026;61.042;2022-09-21T10:32:28;24.10;34.60
45489;DHT22;31236;55.026;61.042;2022-09-21T10:35:18;24.20;34.00
45489;DHT22;31236;55.026;61.042;2022-09-21T10:40:41;24.30;33.30
45489;DHT22;31236;55.026;61.042;2022-09-21T10:46:01;24.30;35.90
45489;DHT22;31236;55.026;61.042;2022-09-21T10:48:32;24.30;35.40
45489;DHT22;31236;55.026;61.042;2022-09-21T10:51:03;24.30;35.50
45489;DHT22;31236;55.026;61.042;2022-09-21T10:53:35;24.40;34.30
45489;DHT22;31236;55.026;61.042;2022-09-21T10:56:39;24.50;33.60
45489;DHT22;31236;55.026;61.042;2022-09-21T10:58:37;24.50;34.40
45489;DHT22;31236;55.026;61.042;2022-09-21T11:01:27;24.50;32.30
45489;DHT22;31236;55.026;61.042;2022-09-21T11:03:59;24.60;31.60
45489;DHT22;31236;55.026;61.042;2022-09-21T11:06:35;24.60;32.40
45489;DHT22;31236;55.026;61.042;2022-09-21T11:30:17;24.10;35.00
45489;DHT22;31236;55.026;61.042;2022-09-21T11:42:22;23.60;38.00
45489;DHT22;31236;55.026;61.042;2022-09-21T11:44:52;23.60;38.60
45489;DHT22;31236;55.026;61.042;2022-09-21T11:53:47;23.80;36.50
45489;DHT22;31236;55.026;61.042;2022-09-21T12:17:08;23.90;37.60
45489;DHT22;31236;55.026;61.042;2022-09-21T12:22:33;23.80;38.00
45489;DHT22;31236;55.026;61.042;2022-09-21T12:25:23;23.70;38.80
45489;DHT22;31236;55.026;61.042;2022-09-21T12:31:24;23.60;39.50
45489;DHT22;31236;55.026;61.042;2022-09-21T12:34:15;23.60;37.50
45489;DHT22;31236;55.026;61.042;2022-09-21T12:45:39;23.30;44.10
45489;DHT22;31236;55.026;61.042;2022-09-21T12:53:36;23.00;47.40
45489;DHT22;31236;55.026;61.042;2022-09-21T13:08:46;22.20;43.70
45489;DHT22;31236;55.026;61.042;2022-09-21T13:11:17;21.90;46.00
45489;DHT22;31236;55.026;61.042;2022-09-21T13:16:38;21.60;47.30
45489;DHT22;31236;55.026;61.042;2022-09-21T13:19:29;21.40;49.80
45489;DHT22;31236;55.026;61.042;2022-09-21T13:22:20;21.20;50.70
45489;DHT22;31236;55.026;61.042;2022-09-21T13:34:37;20.40;52.00
45489;DHT22;31236;55.026;61.042;2022-09-21T13:36:37;20.20;50.80
45489;DHT22;31236;55.026;61.042;2022-09-21T13:44:51;19.80;50.90
45489;DHT22;31236;55.026;61.042;2022-09-21T13:47:41;19.70;49.60
45489;DHT22;31236;55.026;61.042;2022-09-21T13:53:26;19.50;51.70
45489;DHT22;31236;55.026;61.042;2022-09-21T13:58:49;19.10;52.10
45489;DHT22;31236;55.026;61.042;2022-09-21T14:01:39;18.90;54.30
45489;DHT22;31236;55.026;61.042;2022-09-21T14:04:31;18.80;55.70
45489;DHT22;31236;55.026;61.042;2022-09-21T14:24:47;18.20;56.20
45489;DHT22;31236;55.026;61.042;2022-09-21T14:27:40;18.10;54.40
45489;DHT22;31236;55.026;61.042;2022-09-21T14:30:31;18.00;53.50
45489;DHT22;31236;55.026;61.042;2022-09-21T14:35:36;17.80;51.70
45489;DHT22;31236;55.026;61.042;2022-09-21T14:39:00;17.80;52.30
45489;DHT22;31236;55.026;61.042;2022-09-21T14:41:18;17.80;54.50
45489;DHT22;31236;55.026;61.042;2022-09-21T14:46:46;17.40;56.10
45489;DHT22;31236;55.026;61.042;2022-09-21T15:11:42;16.60;58.80
45489;DHT22;31236;55.026;61.042;2022-09-21T15:17:25;16.40;61.60
45489;DHT22;31236;55.026;61.042;2022-09-21T15:19:59;16.40;60.40
45489;DHT22;31236;55.026;61.042;2022-09-21T15:22:31;16.40;60.10
45489;DHT22;31236;55.026;61.042;2022-09-21T15:25:03;16.40;59.90
45489;DHT22;31236;55.026;61.042;2022-09-21T15:27:33;16.30;57.80
45489;DHT22;31236;55.026;61.042;2022-09-21T15:30:05;16.30;57.90
45489;DHT22;31236;55.026;61.042;2022-09-21T15:32:38;16.20;58.80
45489;DHT22;31236;55.026;61.042;2022-09-21T15:36:00;16.20;59.40
45489;DHT22;31236;55.026;61.042;2022-09-21T15:38:01;16.10;62.20
45489;DHT22;31236;55.026;61.042;2022-09-21T15:40:33;16.10;62.80
45489;DHT22;31236;55.026;61.042;2022-09-21T15:46:15;16.10;63.00
45489;DHT22;31236;55.026;61.042;2022-09-21T15:48:47;16.00;61.40
45489;DHT22;31236;55.026;61.042;2022-09-21T15:54:32;16.00;63.50
45489;DHT22;31236;55.026;61.042;2022-09-21T15:57:20;15.90;64.00
45489;DHT22;31236;55.026;61.042;2022-09-21T15:59:36;15.90;63.50
45489;DHT22;31236;55.026;61.042;2022-09-21T16:02:25;15.80;63.60
45489;DHT22;31236;55.026;61.042;2022-09-21T16:04:57;15.70;64.90
45489;DHT22;31236;55.026;61.042;2022-09-21T16:07:47;15.70;65.40
45489;DHT22;31236;55.026;61.042;2022-09-21T16:10:38;15.60;64.60
45489;DHT22;31236;55.026;61.042;2022-09-21T16:13:28;15.50;63.60
45489;DHT22;31236;55.026;61.042;2022-09-21T16:16:19;15.50;62.40
45489;DHT22;31236;55.026;61.042;2022-09-21T16:19:08;15.40;62.60
45489;DHT22;31236;55.026;61.042;2022-09-21T16:21:39;15.40;63.20
45489;DHT22;31236;55.026;61.042;2022-09-21T16:24:29;15.30;63.00
45489;DHT22;31236;55.026;61.042;2022-09-21T16:27:01;15.20;63.80
45489;DHT22;31236;55.026;61.042;2022-09-21T16:29:51;15.20;64.90
45489;DHT22;31236;55.026;61.042;2022-09-21T16:32:41;15.20;65.70
45489;DHT22;31236;55.026;61.042;2022-09-21T16:35:32;15.10;66.20
45489;DHT22;31236;55.026;61.042;2022-09-21T16:38:04;15.00;66.60
45489;DHT22;31236;55.026;61.042;2022-09-21T16:40:36;14.90;66.10
45489;DHT22;31236;55.026;61.042;2022-09-21T16:43:08;14.90;66.50
45489;DHT22;31236;55.026;61.042;2022-09-21T16:45:39;14.80;66.90
45489;DHT22;31236;55.026;61.042;2022-09-21T16:48:11;14.80;67.20
45489;DHT22;31236;55.026;61.042;2022-09-21T16:50:42;14.70;67.10
45489;DHT22;31236;55.026;61.042;2022-09-21T16:53:13;14.70;67.40
45489;DHT22;31236;55.026;61.042;2022-09-21T16:55:45;14.60;67.40
45489;DHT22;31236;55.026;61.042;2022-09-21T16:58:15;14.60;67.60
45489;DHT22;31236;55.026;61.042;2022-09-21T17:00:49;14.60;67.90
45489;DHT22;31236;55.026;61.042;2022-09-21T17:03:20;14.50;67.80
45489;DHT22;31236;55.026;61.042;2022-09-21T17:05:51;14.50;68.00
45489;DHT22;31236;55.026;61.042;2022-09-21T17:08:23;14.50;68.00
45489;DHT22;31236;55.026;61.042;2022-09-21T17:10:54;14.50;68.20
45489;DHT22;31236;55.026;61.042;2022-09-21T17:13:25;14.40;68.60
45489;DHT22;31236;55.026;61.042;2022-09-21T17:15:57;14.40;68.70
45489;DHT22;31236;55.026;61.042;2022-09-21T17:18:27;14.40;68.50
45489;DHT22;31236;55.026;61.042;2022-09-21T17:20:57;14.40;68.90
45489;DHT22;31236;55.026;61.042;2022-09-21T17:23:30;14.30;69.20
45489;DHT22;31236;55.026;61.042;2022-09-21T17:26:00;14.30;68.90
45489;DHT22;31236;55.026;61.042;2022-09-21T17:28:31;14.30;68.90
45489;DHT22;31236;55.026;61.042;2022-09-21T17:31:02;14.20;69.40
45489;DHT22;31236;55.026;61.042;2022-09-21T17:33:34;14.20;70.10
45489;DHT22;31236;55.026;61.042;2022-09-21T17:36:05;14.20;70.30
45489;DHT22;31236;55.026;61.042;2022-09-21T17:38:36;14.20;70.70
45489;DHT22;31236;55.026;61.042;2022-09-21T17:47:27;14.20;71.30
45489;DHT22;31236;55.026;61.042;2022-09-21T17:50:21;14.30;71.20
45489;DHT22;31236;55.026;61.042;2022-09-21T17:52:52;14.30;71.10
45489;DHT22;31236;55.026;61.042;2022-09-21T17:59:28;14.30;71.90
45489;DHT22;31236;55.026;61.042;2022-09-21T18:04:18;14.30;73.30
45489;DHT22;31236;55.026;61.042;2022-09-21T18:06:49;14.10;74.40
45489;DHT22;31236;55.026;61.042;2022-09-21T18:09:20;14.20;75.00
45489;DHT22;31236;55.026;61.042;2022-09-21T18:26:45;14.10;75.40
45489;DHT22;31236;55.026;61.042;2022-09-21T18:29:35;14.00;76.10
45489;DHT22;31236;55.026;61.042;2022-09-21T18:38:48;13.90;75.40
45489;DHT22;31236;55.026;61.042;2022-09-21T18:44:45;13.60;76.60
45489;DHT22;31236;55.026;61.042;2022-09-21T18:53:23;13.50;76.30
45489;DHT22;31236;55.026;61.042;2022-09-21T18:55:53;13.40;76.50
45489;DHT22;31236;55.026;61.042;2022-09-21T18:58:24;13.50;76.60
45489;DHT22;31236;55.026;61.042;2022-09-21T19:01:14;13.50;76.70
45489;DHT22;31236;55.026;61.042;2022-09-21T19:03:45;13.50;76.50
45489;DHT22;31236;55.026;61.042;2022-09-21T19:09:29;13.50;76.10
45489;DHT22;31236;55.026;61.042;2022-09-21T19:12:54;13.50;76.30
45489;DHT22;31236;55.026;61.042;2022-09-21T19:27:27;13.30;77.20
45489;DHT22;31236;55.026;61.042;2022-09-21T19:32:20;13.30;76.90
45489;DHT22;31236;55.026;61.042;2022-09-21T19:34:51;13.20;77.10
45489;DHT22;31236;55.026;61.042;2022-09-21T19:37:22;13.10;77.70
45489;DHT22;31236;55.026;61.042;2022-09-21T19:39:53;13.20;77.80
45489;DHT22;31236;55.026;61.042;2022-09-21T19:42:27;13.20;77.10
45489;DHT22;31236;55.026;61.042;2022-09-21T19:50:58;13.20;76.00
45489;DHT22;31236;55.026;61.042;2022-09-21T19:53:29;13.10;76.40
45489;DHT22;31236;55.026;61.042;2022-09-21T19:56:19;13.10;77.20
45489;DHT22;31236;55.026;61.042;2022-09-21T19:59:09;13.00;78.00
45489;DHT22;31236;55.026;61.042;2022-09-21T20:02:00;13.00;77.90
45489;DHT22;31236;55.026;61.042;2022-09-21T20:04:53;13.00;77.70
45489;DHT22;31236;55.026;61.042;2022-09-21T20:22:17;12.90;76.70
45489;DHT22;31236;55.026;61.042;2022-09-21T20:27:59;12.90;75.80
45489;DHT22;31236;55.026;61.042;2022-09-21T20:30:32;12.80;74.90
45489;DHT22;31236;55.026;61.042;2022-09-21T20:33:05;12.80;74.30
45489;DHT22;31236;55.026;61.042;2022-09-21T20:35:36;12.70;74.80
45489;DHT22;31236;55.026;61.042;2022-09-21T20:38:08;12.70;75.40
45489;DHT22;31236;55.026;61.042;2022-09-21T20:40:39;12.70;75.30
45489;DHT22;31236;55.026;61.042;2022-09-21T20:43:10;12.60;75.20
45489;DHT22;31236;55.026;61.042;2022-09-21T20:45:41;12.60;75.70
45489;DHT22;31236;55.026;61.042;2022-09-21T20:48:13;12.50;75.70
45489;DHT22;31236;55.026;61.042;2022-09-21T20:50:45;12.50;75.80
45489;DHT22;31236;55.026;61.042;2022-09-21T20:53:17;12.40;75.80
45489;DHT22;31236;55.026;61.042;2022-09-21T20:56:06;12.40;75.70
45489;DHT22;31236;55.026;61.042;2022-09-21T20:58:38;12.30;75.70
45489;DHT22;31236;55.026;61.042;2022-09-21T21:01:09;12.30;75.50
45489;DHT22;31236;55.026;61.042;2022-09-21T21:03:39;12.20;75.00
45489;DHT22;31236;55.026;61.042;2022-09-21T21:06:12;12.20;74.40
45489;DHT22;31236;55.026;61.042;2022-09-21T21:08:45;12.10;74.20
45489;DHT22;31236;55.026;61.042;2022-09-21T21:11:16;12.10;74.00
45489;DHT22;31236;55.026;61.042;2022-09-21T21:13:47;12.10;74.00
45489;DHT22;31236;55.026;61.042;2022-09-21T21:16:17;12.10;74.20
45489;DHT22;31236;55.026;61.042;2022-09-21T21:18:47;12.10;74.10
45489;DHT22;31236;55.026;61.042;2022-09-21T21:21:18;12.00;74.30
45489;DHT22;31236;55.026;61.042;2022-09-21T21:23:51;12.00;74.30
45489;DHT22;31236;55.026;61.042;2022-09-21T21:26:41;11.90;74.30
45489;DHT22;31236;55.026;61.042;2022-09-21T21:29:11;11.90;74.20
45489;DHT22;31236;55.026;61.042;2022-09-21T21:31:42;11.90;73.70
45489;DHT22;31236;55.026;61.042;2022-09-21T21:34:12;11.90;73.00
45489;DHT22;31236;55.026;61.042;2022-09-21T21:36:42;11.80;73.10
45489;DHT22;31236;55.026;61.042;2022-09-21T21:39:13;11.90;73.30
45489;DHT22;31236;55.026;61.042;2022-09-21T21:41:43;11.90;73.40
45489;DHT22;31236;55.026;61.042;2022-09-21T21:44:14;11.90;72.70
45489;DHT22;31236;55.026;61.042;2022-09-21T21:46:44;11.90;72.60
45489;DHT22;31236;55.026;61.042;2022-09-21T21:49:14;11.90;72.40
45489;DHT22;31236;55.026;61.042;2022-09-21T21:51:45;11.90;72.70
45489;DHT22;31236;55.026;61.042;2022-09-21T21:54:35;11.90;72.90
45489;DHT22;31236;55.026;61.042;2022-09-21T21:57:05;11.80;73.20
45489;DHT22;31236;55.026;61.042;2022-09-21T21:59:36;11.70;73.60
45489;DHT22;31236;55.026;61.042;2022-09-21T22:02:07;11.60;73.90
45489;DHT22;31236;55.026;61.042;2022-09-21T22:04:37;11.60;74.50
45489;DHT22;31236;55.026;61.042;2022-09-21T22:07:08;11.60;74.70
45489;DHT22;31236;55.026;61.042;2022-09-21T22:09:39;11.50;74.40
45489;DHT22;31236;55.026;61.042;2022-09-21T22:12:09;11.50;74.40
45489;DHT22;31236;55.026;61.042;2022-09-21T22:14:40;11.50;74.80
45489;DHT22;31236;55.026;61.042;2022-09-21T22:17:12;11.50;74.80